createdAt,value
2022-11-26T00:02:30.657Z,83.68
2022-11-26T00:05:00.021Z,81.50
2022-11-26T00:07:30.628Z,83.55
2022-11-26T00:09:59.681Z,87.38
2022-11-26T00:12:33.829Z,87.35
2022-11-26T00:15:16.445Z,78.30
2022-11-26T00:17:44.066Z,82.65
2022-11-26T00:20:12.443Z,80.35
2022-11-26T00:22:55.725Z,85.60
2022-11-26T00:25:27.691Z,77.95
2022-11-26T00:27:58.418Z,78.80
2022-11-26T00:30:28.187Z,85.35
2022-11-26T00:32:56.230Z,82.40
2022-11-26T00:35:23.764Z,76.78
2022-11-26T00:37:57.976Z,74.55
2022-11-26T00:40:32.760Z,78.28
2022-11-26T00:43:02.039Z,81.40
2022-11-26T00:45:31.533Z,81.70
2022-11-26T00:48:01.895Z,87.05
2022-11-26T00:50:39.007Z,93.05
2022-11-26T00:53:08.335Z,93.35
2022-11-26T00:55:41.911Z,101.50
2022-11-26T00:58:26.895Z,92.25
2022-11-26T01:00:57.334Z,92.20
2022-11-26T01:03:26.490Z,96.00
2022-11-26T01:05:58.358Z,88.32
2022-11-26T01:08:35.789Z,83.10
2022-11-26T01:11:05.123Z,82.38
2022-11-26T01:13:33.635Z,88.00
2022-11-26T01:16:07.006Z,85.30
2022-11-26T01:18:35.936Z,74.55
2022-11-26T01:21:03.129Z,84.35
2022-11-26T01:23:30.589Z,85.05
2022-11-26T01:25:58.994Z,72.28
2022-11-26T01:28:28.951Z,73.05
2022-11-26T01:30:56.070Z,77.65
2022-11-26T01:33:23.556Z,67.80
2022-11-26T01:35:50.765Z,72.05
2022-11-26T01:38:18.523Z,73.93
2022-11-26T01:41:09.625Z,67.80
2022-11-26T01:43:43.443Z,79.72
2022-11-26T01:46:22.445Z,66.55
2022-11-26T01:48:51.080Z,72.10
2022-11-26T01:51:29.258Z,81.38
2022-11-26T01:54:01.135Z,76.90
2022-11-26T01:56:38.162Z,76.00
2022-11-26T01:59:18.583Z,70.13
2022-11-26T02:01:47.559Z,80.82
2022-11-26T02:04:41.086Z,87.22
2022-11-26T02:07:08.487Z,99.70
2022-11-26T02:09:36.495Z,97.07
2022-11-26T02:12:04.114Z,101.43
2022-11-26T02:14:37.104Z,96.00
2022-11-26T02:17:45.788Z,87.03
2022-11-26T02:20:51.038Z,92.90
2022-11-26T02:24:17.062Z,88.57
2022-11-26T02:27:22.271Z,89.07
2022-11-26T02:30:11.284Z,98.55
2022-11-26T02:32:48.258Z,91.65
2022-11-26T02:35:37.417Z,94.43
2022-11-26T02:38:15.421Z,86.78
2022-11-26T02:40:42.593Z,93.53
2022-11-26T02:43:10.726Z,93.38
2022-11-26T02:45:42.622Z,99.55
2022-11-26T02:48:22.322Z,86.68
2022-11-26T02:50:59.751Z,90.13
2022-11-26T02:53:32.190Z,92.47
2022-11-26T02:56:17.367Z,93.35
2022-11-26T02:58:45.815Z,81.47
2022-11-26T03:01:49.785Z,87.60
2022-11-26T03:04:24.607Z,80.32
2022-11-26T03:06:58.318Z,88.82
2022-11-26T03:09:25.786Z,81.75
2022-11-26T03:11:53.133Z,84.70
2022-11-26T03:14:20.671Z,87.90
2022-11-26T03:16:47.898Z,80.55
2022-11-26T03:19:15.461Z,94.15
2022-11-26T03:21:42.648Z,100.25
2022-11-26T03:24:10.127Z,92.18
2022-11-26T03:26:37.356Z,94.95
2022-11-26T03:29:04.901Z,89.90
2022-11-26T03:31:32.211Z,90.43
2022-11-26T03:33:59.849Z,97.45
2022-11-26T03:36:27.058Z,95.88
2022-11-26T03:38:54.600Z,83.32
2022-11-26T03:41:21.844Z,95.57
2022-11-26T03:43:49.424Z,79.90
2022-11-26T03:46:16.747Z,79.80
2022-11-26T03:48:44.374Z,80.90
2022-11-26T03:51:11.668Z,86.20
2022-11-26T03:53:39.321Z,87.40
2022-11-26T03:56:07.149Z,82.95
2022-11-26T03:58:35.808Z,87.63
2022-11-26T04:01:12.502Z,90.50
2022-11-26T04:03:41.196Z,87.60
2022-11-26T04:06:10.134Z,96.32
2022-11-26T04:08:37.613Z,106.47
2022-11-26T04:11:04.893Z,96.68
2022-11-26T04:13:32.356Z,96.40
2022-11-26T04:15:59.540Z,89.60
2022-11-26T04:18:26.966Z,95.18
2022-11-26T04:20:54.141Z,93.70
2022-11-26T04:23:21.704Z,89.72
2022-11-26T04:25:48.920Z,95.97
2022-11-26T04:28:16.477Z,96.35
2022-11-26T04:30:44.079Z,103.32
2022-11-26T04:33:11.850Z,89.47
2022-11-26T04:35:39.223Z,91.38
2022-11-26T04:38:06.769Z,94.07
2022-11-26T04:40:33.949Z,80.07
2022-11-26T04:43:01.503Z,81.20
2022-11-26T04:45:28.737Z,72.97
2022-11-26T04:47:56.259Z,75.30
2022-11-26T04:50:24.195Z,71.88
2022-11-26T04:52:51.743Z,73.32
2022-11-26T04:55:19.037Z,71.03
2022-11-26T04:57:48.691Z,73.47
2022-11-26T05:00:18.404Z,67.80
2022-11-26T05:02:46.336Z,78.53
2022-11-26T05:05:13.881Z,66.53
2022-11-26T05:07:41.401Z,73.93
2022-11-26T05:10:10.117Z,78.78
2022-11-26T05:12:37.909Z,74.25
2022-11-26T05:15:05.757Z,71.03
2022-11-26T05:17:33.589Z,78.57
2022-11-26T05:20:00.895Z,68.13
2022-11-26T05:22:28.405Z,75.60
2022-11-26T05:24:55.609Z,75.63
2022-11-26T05:27:23.118Z,66.15
2022-11-26T05:29:50.373Z,74.75
2022-11-26T05:32:18.135Z,65.05
2022-11-26T05:34:45.385Z,77.60
2022-11-26T05:37:12.946Z,66.32
2022-11-26T05:39:40.144Z,86.70
2022-11-26T05:42:09.320Z,85.55
2022-11-26T05:44:38.041Z,76.70
2022-11-26T05:47:05.951Z,81.32
2022-11-26T05:49:33.185Z,77.60
2022-11-26T05:52:00.691Z,86.28
2022-11-26T05:54:27.876Z,72.78
2022-11-26T05:56:59.869Z,79.22
2022-11-26T05:59:28.317Z,81.53
2022-11-26T06:01:56.229Z,78.80
2022-11-26T06:04:23.530Z,78.13
2022-11-26T06:06:51.041Z,74.00
2022-11-26T06:09:18.177Z,80.50
2022-11-26T06:11:45.725Z,65.95
2022-11-26T06:14:12.911Z,75.70
2022-11-26T06:16:40.425Z,67.97
2022-11-26T06:19:07.706Z,74.20
2022-11-26T06:21:35.209Z,70.45
2022-11-26T06:24:02.414Z,75.95
2022-11-26T06:26:29.879Z,64.00
2022-11-26T06:28:57.161Z,66.43
2022-11-26T06:31:24.696Z,62.42
2022-11-26T06:33:56.289Z,71.15
2022-11-26T06:36:24.749Z,75.28
2022-11-26T06:38:51.972Z,72.05
2022-11-26T06:41:19.771Z,68.80
2022-11-26T06:43:46.919Z,62.10
2022-11-26T06:46:14.504Z,65.63
2022-11-26T06:48:41.900Z,68.07
2022-11-26T06:51:16.017Z,68.97
2022-11-26T06:53:43.608Z,68.60
2022-11-26T06:56:18.497Z,67.05
2022-11-26T06:58:55.095Z,64.40
2022-11-26T07:01:26.079Z,64.00
2022-11-26T07:03:55.146Z,63.67
2022-11-26T07:06:30.156Z,64.47
2022-11-26T07:09:02.117Z,59.53
2022-11-26T07:11:29.982Z,72.28
2022-11-26T07:13:57.524Z,68.78
2022-11-26T07:16:25.513Z,67.90
2022-11-26T07:19:02.177Z,74.88
2022-11-26T07:21:30.480Z,82.00
2022-11-26T07:23:58.568Z,81.22
2022-11-26T07:26:26.156Z,77.20
2022-11-26T07:28:54.173Z,72.35
2022-11-26T07:31:23.675Z,71.85
2022-11-26T07:33:51.824Z,74.80
2022-11-26T07:36:24.028Z,76.60
2022-11-26T07:38:54.822Z,77.75
2022-11-26T07:41:23.293Z,75.03
2022-11-26T07:43:50.746Z,66.30
2022-11-26T07:46:23.767Z,68.82
2022-11-26T07:48:51.668Z,62.65
2022-11-26T07:51:24.021Z,67.93
2022-11-26T07:53:52.320Z,61.35
2022-11-26T07:56:21.099Z,60.00
2022-11-26T07:58:48.532Z,56.60
2022-11-26T08:01:23.187Z,53.20
2022-11-26T08:03:51.976Z,55.70
2022-11-26T08:06:23.835Z,52.65
2022-11-26T08:08:51.482Z,58.50
2022-11-26T08:11:32.116Z,58.83
2022-11-26T08:14:02.822Z,54.55
2022-11-26T08:16:31.026Z,55.63
2022-11-26T08:19:02.781Z,58.65
2022-11-26T08:21:30.573Z,53.58
2022-11-26T08:23:58.540Z,55.17
2022-11-26T08:26:35.087Z,51.53
2022-11-26T08:29:03.633Z,48.65
2022-11-26T08:31:31.244Z,58.70
2022-11-26T08:34:01.012Z,53.83
2022-11-26T08:36:30.353Z,53.15
2022-11-26T08:38:58.887Z,49.72
2022-11-26T08:41:27.173Z,54.67
2022-11-26T08:44:09.916Z,48.50
2022-11-26T08:46:42.847Z,52.50
2022-11-26T08:49:13.243Z,55.20
2022-11-26T08:51:41.518Z,69.95
2022-11-26T08:54:09.011Z,61.17
2022-11-26T08:56:37.652Z,69.50
2022-11-26T08:59:04.941Z,88.05
2022-11-26T09:01:34.162Z,89.03
2022-11-26T09:04:04.286Z,89.85
2022-11-26T09:06:37.205Z,89.82
2022-11-26T09:09:15.671Z,91.75
2022-11-26T09:11:57.633Z,93.55
2022-11-26T09:14:31.559Z,104.75
2022-11-26T09:16:59.329Z,103.40
2022-11-26T09:19:28.846Z,83.88
2022-11-26T09:21:56.700Z,93.05
2022-11-26T09:24:24.181Z,80.53
2022-11-26T09:26:52.839Z,89.70
2022-11-26T09:29:23.049Z,85.95
2022-11-26T09:34:39.075Z,85.03
2022-11-26T09:37:07.278Z,85.60
2022-11-26T09:39:34.586Z,76.43
2022-11-26T09:42:28.764Z,79.20
2022-11-26T09:45:42.252Z,76.78
2022-11-26T09:48:25.230Z,76.78
2022-11-26T09:51:09.531Z,81.35
2022-11-26T09:53:45.864Z,71.22
2022-11-26T09:56:26.264Z,71.22
2022-11-26T09:59:04.008Z,69.68
2022-11-26T10:01:34.336Z,71.97
2022-11-26T10:04:01.956Z,59.88
2022-11-26T10:07:08.817Z,65.53
2022-11-26T10:10:12.360Z,64.88
2022-11-26T10:13:20.612Z,63.97
2022-11-26T10:16:28.090Z,76.00
2022-11-26T10:19:59.597Z,72.03
2022-11-26T10:22:36.467Z,68.47
2022-11-26T10:25:16.000Z,63.80
2022-11-26T10:27:43.679Z,63.50
2022-11-26T10:30:25.579Z,66.03
2022-11-26T10:32:56.316Z,57.63
2022-11-26T10:35:29.085Z,55.22
2022-11-26T10:37:58.335Z,59.60
2022-11-26T10:40:33.021Z,60.78
2022-11-26T10:43:08.538Z,56.35
2022-11-26T10:45:53.131Z,57.95
2022-11-26T10:48:27.043Z,59.55
2022-11-26T10:51:06.895Z,58.33
2022-11-26T10:54:01.420Z,53.85
2022-11-26T10:56:47.180Z,58.33
2022-11-26T10:59:44.974Z,53.88
2022-11-26T11:02:41.295Z,50.60
2022-11-26T11:05:10.182Z,49.60
2022-11-26T11:07:37.992Z,53.97
2022-11-26T11:10:08.501Z,49.28
2022-11-26T11:12:51.161Z,50.90
2022-11-26T11:15:24.587Z,52.20
2022-11-26T11:18:20.436Z,56.42
2022-11-26T11:21:05.139Z,63.05
2022-11-26T11:24:07.203Z,66.07
2022-11-26T11:26:26.897Z,65.35
2022-11-26T11:28:56.526Z,68.70
2022-11-26T11:31:26.812Z,73.82
2022-11-26T11:34:23.888Z,72.35
2022-11-26T11:37:15.173Z,69.53
2022-11-26T11:39:44.158Z,63.72
2022-11-26T11:42:32.376Z,62.40
2022-11-26T11:45:01.503Z,76.95
2022-11-26T11:47:42.972Z,66.20
2022-11-26T11:50:20.167Z,60.67
2022-11-26T11:53:15.247Z,59.90
2022-11-26T11:56:19.188Z,58.67
2022-11-26T11:59:21.588Z,59.78
2022-11-26T12:01:57.147Z,57.10
2022-11-26T12:04:55.287Z,60.13
2022-11-26T12:07:42.519Z,59.95
2022-11-26T12:10:33.894Z,60.67
2022-11-26T12:13:08.078Z,58.33
2022-11-26T12:15:53.838Z,60.92
2022-11-26T12:18:56.757Z,63.95
2022-11-26T12:21:54.576Z,64.30
2022-11-26T12:24:58.862Z,63.97
2022-11-26T12:27:36.227Z,63.30
2022-11-26T12:30:50.882Z,65.72
2022-11-26T12:33:43.756Z,56.90
2022-11-26T12:36:36.312Z,64.28
2022-11-26T12:39:19.127Z,60.92
2022-11-26T12:42:11.420Z,54.58
2022-11-26T12:44:42.354Z,55.03
2022-11-26T12:47:38.842Z,56.00
2022-11-26T12:50:44.543Z,52.58
2022-11-26T12:53:46.072Z,52.03
2022-11-26T12:56:23.836Z,54.63
2022-11-26T12:58:59.673Z,44.38
2022-11-26T13:01:28.272Z,50.45
2022-11-26T13:04:14.742Z,50.95
2022-11-26T13:07:13.765Z,49.35
2022-11-26T13:10:05.215Z,52.53
2022-11-26T13:12:51.148Z,56.08
2022-11-26T13:15:25.671Z,51.45
2022-11-26T13:17:54.673Z,45.40
2022-11-26T13:20:55.404Z,48.42
2022-11-26T13:23:44.260Z,45.83
2022-11-26T13:26:29.283Z,38.72
2022-11-26T13:29:04.036Z,38.15
2022-11-26T13:31:55.407Z,43.75
2022-11-26T13:34:45.957Z,44.53
2022-11-26T13:37:40.937Z,41.55
2022-11-26T13:40:43.386Z,42.03
2022-11-26T13:43:38.557Z,47.85
2022-11-26T13:46:13.846Z,38.47
2022-11-26T13:49:05.252Z,39.70
2022-11-26T13:52:03.447Z,41.35
2022-11-26T13:54:48.163Z,40.80
2022-11-26T13:57:24.624Z,37.85
2022-11-26T13:59:56.212Z,41.25
2022-11-26T14:02:36.913Z,35.63
2022-11-26T14:05:10.548Z,34.90
2022-11-26T14:07:38.244Z,35.75
2022-11-26T14:10:28.445Z,34.47
2022-11-26T14:13:07.510Z,39.58
2022-11-26T14:15:43.726Z,39.90
2022-11-26T14:18:14.815Z,51.63
2022-11-26T14:21:00.785Z,54.75
2022-11-26T14:23:47.785Z,51.70
2022-11-26T14:26:43.817Z,53.83
2022-11-26T14:29:17.566Z,62.55
2022-11-26T14:31:55.009Z,56.35
2022-11-26T14:34:57.474Z,55.45
2022-11-26T14:37:31.092Z,50.95
2022-11-26T14:40:19.447Z,50.90
2022-11-26T14:42:46.690Z,53.92
2022-11-26T14:45:20.806Z,52.88
2022-11-26T14:47:53.386Z,52.35
2022-11-26T14:50:25.303Z,50.75
2022-11-26T14:53:01.307Z,44.65
2022-11-26T14:55:31.614Z,44.55
2022-11-26T14:58:42.090Z,52.10
2022-11-26T15:01:15.482Z,50.95
2022-11-26T15:03:53.004Z,49.80
2022-11-26T15:06:37.729Z,48.78
2022-11-26T15:09:16.517Z,58.10
2022-11-26T15:12:07.538Z,68.47
2022-11-26T15:14:48.564Z,50.78
2022-11-26T15:17:23.756Z,51.88
2022-11-26T15:19:53.287Z,60.15
2022-11-26T15:22:47.824Z,61.97
2022-11-26T15:25:24.107Z,59.88
2022-11-26T15:28:20.142Z,49.50
2022-11-26T15:31:00.908Z,46.90
2022-11-26T15:33:32.275Z,47.78
2022-11-26T15:36:00.349Z,42.38
2022-11-26T15:38:31.474Z,42.72
2022-11-26T15:41:00.851Z,43.70
2022-11-26T15:43:44.714Z,47.88
2022-11-26T15:46:20.252Z,44.67
2022-11-26T15:48:54.039Z,48.30
2022-11-26T15:51:37.314Z,45.65
2022-11-26T15:54:43.472Z,48.72
2022-11-26T15:57:52.446Z,50.40
2022-11-26T16:00:36.461Z,46.03
2022-11-26T16:03:05.162Z,43.17
2022-11-26T16:05:39.870Z,47.28
2022-11-26T16:08:23.803Z,40.85
2022-11-26T16:10:57.444Z,54.78
2022-11-26T16:13:32.403Z,54.35
2022-11-26T16:16:28.310Z,53.05
2022-11-26T16:19:00.305Z,42.42
2022-11-26T16:21:34.653Z,44.97
2022-11-26T16:24:19.913Z,46.60
2022-11-26T16:27:05.672Z,46.47
2022-11-26T16:29:35.950Z,36.83
2022-11-26T16:32:03.695Z,32.67
2022-11-26T16:34:31.015Z,31.73
2022-11-26T16:37:22.569Z,32.10
2022-11-26T16:39:53.628Z,28.00
2022-11-26T16:42:23.809Z,28.63
2022-11-26T16:44:51.569Z,34.03
2022-11-26T16:47:36.354Z,39.50
2022-11-26T16:50:04.110Z,38.40
2022-11-26T16:52:36.101Z,38.10
2022-11-26T16:55:03.386Z,45.05
2022-11-26T16:57:31.023Z,44.10
2022-11-26T17:00:05.433Z,38.10
2022-11-26T17:02:33.601Z,38.22
2022-11-26T17:05:01.320Z,38.58
2022-11-26T17:07:42.832Z,38.83
2022-11-26T17:10:18.341Z,30.67
2022-11-26T17:12:46.414Z,42.90
2022-11-26T17:15:13.818Z,39.92
2022-11-26T17:17:41.758Z,39.58
2022-11-26T17:20:25.689Z,35.22
2022-11-26T17:22:53.646Z,44.05
2022-11-26T17:25:21.242Z,42.17
2022-11-26T17:27:48.933Z,55.50
2022-11-26T17:30:21.867Z,46.90
2022-11-26T17:32:50.891Z,55.13
2022-11-26T17:35:18.904Z,48.95
2022-11-26T17:37:46.777Z,46.25
2022-11-26T17:40:23.980Z,44.67
2022-11-26T17:42:51.971Z,42.63
2022-11-26T17:45:19.882Z,45.63
2022-11-26T17:47:47.753Z,46.65
2022-11-26T17:50:25.391Z,45.25
2022-11-26T17:52:53.309Z,58.72
2022-11-26T17:55:23.590Z,55.35
2022-11-26T17:57:52.012Z,53.00
2022-11-26T18:00:28.233Z,53.97
2022-11-26T18:02:57.101Z,56.90
2022-11-26T18:05:25.683Z,51.33
2022-11-26T18:07:53.381Z,55.72
2022-11-26T18:10:23.366Z,54.72
2022-11-26T18:12:54.312Z,51.35
2022-11-26T18:15:25.582Z,52.53
2022-11-26T18:17:55.499Z,54.08
2022-11-26T18:20:28.798Z,62.13
2022-11-26T18:23:00.830Z,58.00
2022-11-26T18:25:29.898Z,62.22
2022-11-26T18:27:57.431Z,63.13
2022-11-26T18:30:24.889Z,57.42
2022-11-26T18:32:52.619Z,58.97
2022-11-26T18:35:19.934Z,60.05
2022-11-26T18:37:47.502Z,65.68
2022-11-26T18:40:17.225Z,59.05
2022-11-26T18:42:45.860Z,55.35
2022-11-26T18:45:16.009Z,55.90
2022-11-26T18:47:43.715Z,57.92
2022-11-26T18:50:11.662Z,56.90
2022-11-26T18:52:39.972Z,62.83
2022-11-26T18:55:08.410Z,66.68
2022-11-26T18:57:36.749Z,69.15
2022-11-26T19:00:06.298Z,70.28
2022-11-26T19:02:37.081Z,65.47
2022-11-26T19:05:05.440Z,78.03
2022-11-26T19:07:33.620Z,80.07
2022-11-26T19:10:00.990Z,69.88
2022-11-26T19:12:28.542Z,76.38
2022-11-26T19:14:55.738Z,78.13
2022-11-26T19:17:23.395Z,75.70
2022-11-26T19:19:50.606Z,73.13
2022-11-26T19:22:18.088Z,70.15
2022-11-26T19:24:45.351Z,68.93
2022-11-26T19:27:13.703Z,64.10
2022-11-26T19:29:41.172Z,66.60
2022-11-26T19:32:08.924Z,63.50
2022-11-26T19:34:36.126Z,59.22
2022-11-26T19:37:03.631Z,63.35
2022-11-26T19:39:31.666Z,64.72
2022-11-26T19:41:59.985Z,60.92
2022-11-26T19:44:27.364Z,60.40
2022-11-26T19:46:54.914Z,54.63
2022-11-26T19:49:22.739Z,69.65
2022-11-26T19:51:50.285Z,71.00
2022-11-26T19:54:17.567Z,57.30
2022-11-26T19:56:46.045Z,61.97
2022-11-26T19:59:13.516Z,65.05
2022-11-26T20:01:42.298Z,71.35
2022-11-26T20:04:16.748Z,76.68
2022-11-26T20:06:44.610Z,72.20
2022-11-26T20:09:14.728Z,71.80
2022-11-26T20:11:42.894Z,76.55
2022-11-26T20:14:10.841Z,64.30
2022-11-26T20:16:43.273Z,75.72
2022-11-26T20:19:12.599Z,67.35
2022-11-26T20:21:40.264Z,76.07
2022-11-26T20:24:13.168Z,75.47
2022-11-26T20:26:43.470Z,73.30
2022-11-26T20:29:16.998Z,79.90
2022-11-26T20:31:48.514Z,90.68
2022-11-26T20:34:31.026Z,95.20
2022-11-26T20:36:58.638Z,114.13
2022-11-26T20:39:26.057Z,112.55
2022-11-26T20:41:53.630Z,97.78
2022-11-26T20:44:21.080Z,87.95
2022-11-26T20:46:48.728Z,79.97
2022-11-26T20:49:16.266Z,78.05
2022-11-26T20:51:43.869Z,73.00
2022-11-26T20:54:11.206Z,82.28
2022-11-26T20:56:38.773Z,71.85
2022-11-26T20:59:07.241Z,77.03
2022-11-26T21:01:40.293Z,71.32
2022-11-26T21:04:08.370Z,68.47
2022-11-26T21:06:36.288Z,78.45
2022-11-26T21:09:06.521Z,110.10
2022-11-26T21:11:35.299Z,102.18
2022-11-26T21:14:02.721Z,86.18
2022-11-26T21:16:31.329Z,84.10
2022-11-26T21:19:00.609Z,78.80
2022-11-26T21:21:29.285Z,69.63
2022-11-26T21:23:58.251Z,64.80
2022-11-26T21:26:27.115Z,67.15
2022-11-26T21:28:58.456Z,62.35
2022-11-26T21:31:29.753Z,71.82
2022-11-26T21:34:04.952Z,67.03
2022-11-26T21:36:35.415Z,70.80
2022-11-26T21:39:03.855Z,63.53
2022-11-26T21:41:33.603Z,62.78
2022-11-26T21:44:04.355Z,61.58
2022-11-26T21:46:38.177Z,50.83
2022-11-26T21:49:07.905Z,47.05
2022-11-26T21:51:35.879Z,52.58
2022-11-26T21:54:03.187Z,52.92
2022-11-26T21:56:32.545Z,57.55
2022-11-26T21:59:01.740Z,62.13
2022-11-26T22:01:33.359Z,57.55
2022-11-26T22:04:14.497Z,57.67
2022-11-26T22:06:44.477Z,59.15
2022-11-26T22:09:14.011Z,56.08
2022-11-26T22:11:44.438Z,54.90
2022-11-26T22:14:15.841Z,59.50
2022-11-26T22:16:43.799Z,53.67
2022-11-26T22:19:11.088Z,59.13
2022-11-26T22:21:41.737Z,55.10
2022-11-26T22:24:15.773Z,57.03
2022-11-26T22:26:44.417Z,51.00
2022-11-26T22:29:17.000Z,41.30
2022-11-26T22:31:44.955Z,38.88
2022-11-26T22:34:18.632Z,45.45
2022-11-26T22:36:46.916Z,41.42
2022-11-26T22:39:17.329Z,44.10
2022-11-26T22:41:47.101Z,48.30
2022-11-26T22:44:16.120Z,63.55
2022-11-26T22:46:44.840Z,50.47
2022-11-26T22:49:15.973Z,53.65
2022-11-26T22:51:43.924Z,43.00
2022-11-26T22:54:15.528Z,44.63
2022-11-26T22:56:43.026Z,50.63
2022-11-26T22:59:14.590Z,52.22
2022-11-26T23:01:42.168Z,45.30
2022-11-26T23:04:11.177Z,49.90
2022-11-26T23:06:39.637Z,53.03
2022-11-26T23:09:09.033Z,50.78
2022-11-26T23:11:40.822Z,51.97
2022-11-26T23:14:09.709Z,43.65
2022-11-26T23:16:40.513Z,45.53
2022-11-26T23:19:08.370Z,52.13
2022-11-26T23:21:40.248Z,47.47
2022-11-26T23:24:08.690Z,55.95
2022-11-26T23:26:39.112Z,47.42
2022-11-26T23:29:08.510Z,61.38
2022-11-26T23:31:41.286Z,54.83
2022-11-26T23:34:10.142Z,46.22
2022-11-26T23:36:38.364Z,44.15
2022-11-26T23:39:08.173Z,46.75
2022-11-26T23:41:36.453Z,41.17
2022-11-26T23:44:03.930Z,42.80
2022-11-26T23:46:35.377Z,41.90
2022-11-26T23:49:03.270Z,46.15
2022-11-26T23:51:32.999Z,50.80
2022-11-26T23:54:00.338Z,40.33
2022-11-26T23:56:32.139Z,43.15
2022-11-26T23:59:03.059Z,41.58
